Time;durP1;ratioP1;P1;durP2;ratioP2;P2;SDS_P1;SDS_P2;PMS_P1;PMS_P2;Temp;Humidity;BMP_temperature;BMP_pressure;BME280_temperature;BME280_humidity;BME280_pressure;Samples;Min_cycle;Max_cycle;Signal;HPM_P1;HPM_P2
2023/08/29 00:00:58;;;;;;;2.43;1.83;;;;;;;15.56;100.00;99687.72;4964934;28;20202;-77
2023/08/29 00:03:27;;;;;;;2.70;1.80;;;;;;;15.54;100.00;99677.31;4969557;28;20197;-77
2023/08/29 00:05:59;;;;;;;2.13;1.77;;;;;;;15.51;100.00;99682.66;4967645;28;20210;-77
2023/08/29 00:08:25;;;;;;;2.17;1.80;;;;;;;15.50;100.00;99680.13;4966497;28;20257;-78
2023/08/29 00:10:57;;;;;;;2.00;1.90;;;;;;;15.46;100.00;99674.19;4970495;28;20190;-76
2023/08/29 00:13:23;;;;;;;2.60;2.07;;;;;;;15.44;100.00;99681.22;4966095;28;20218;-77
2023/08/29 00:15:49;;;;;;;2.07;1.87;;;;;;;15.44;100.00;99681.22;4965634;28;20190;-76
2023/08/29 00:18:14;;;;;;;2.00;1.80;;;;;;;15.44;100.00;99688.16;4966560;28;20221;-77
2023/08/29 00:20:40;;;;;;;1.80;1.70;;;;;;;15.43;100.00;99695.16;4966023;28;20193;-78
2023/08/29 00:23:07;;;;;;;2.03;1.80;;;;;;;15.42;100.00;99690.84;4968921;28;20193;-79
2023/08/29 00:25:32;;;;;;;2.03;1.93;;;;;;;15.43;100.00;99699.53;4963383;28;20246;-78
2023/08/29 00:27:58;;;;;;;1.90;1.67;;;;;;;15.41;100.00;99696.13;4967393;28;20233;-78
2023/08/29 00:30:23;;;;;;;1.80;1.70;;;;;;;15.41;100.00;99701.34;4969428;28;20193;-77
2023/08/29 00:32:48;;;;;;;2.33;2.20;;;;;;;15.38;100.00;99703.16;4983182;28;21039;-77
2023/08/29 00:35:13;;;;;;;2.90;2.10;;;;;;;15.39;100.00;99707.47;4966186;28;20186;-79
2023/08/29 00:37:39;;;;;;;2.23;2.00;;;;;;;15.38;100.00;99697.09;4968100;28;20301;-76
2023/08/29 00:40:05;;;;;;;1.93;1.73;;;;;;;15.38;100.00;99702.28;4967273;28;20193;-78
2023/08/29 00:42:30;;;;;;;1.97;1.87;;;;;;;15.37;100.00;99698.84;4981154;28;20218;-77
2023/08/29 00:44:55;;;;;;;1.90;1.50;;;;;;;15.35;100.00;99689.41;4968508;28;20210;-78
2023/08/29 00:47:21;;;;;;;2.00;1.90;;;;;;;15.36;100.00;99696.28;4962697;28;20213;-78
2023/08/29 00:49:46;;;;;;;2.67;2.10;;;;;;;15.33;100.00;99688.59;4963674;28;20771;-77
2023/08/29 00:52:11;;;;;;;2.00;1.80;;;;;;;15.34;100.00;99683.31;4970288;28;20336;-77
2023/08/29 00:54:37;;;;;;;2.17;2.07;;;;;;;15.33;100.00;99688.59;4968762;28;20210;-77
2023/08/29 00:57:05;;;;;;;2.57;2.17;;;;;;;15.33;100.00;99696.44;4982101;28;20221;-77
2023/08/29 00:59:31;;;;;;;3.00;2.10;;;;;;;15.32;100.00;99697.34;4978064;28;20715;-77
2023/08/29 01:01:57;;;;;;;2.30;2.17;;;;;;;15.31;100.00;99703.47;4966535;28;20205;-77
2023/08/29 01:04:22;;;;;;;2.40;2.20;;;;;;;15.30;100.00;99704.38;4965225;28;20353;-78
2023/08/29 01:06:47;;;;;;;2.43;2.23;;;;;;;15.29;100.00;99705.28;4967231;28;20205;-76
2023/08/29 01:09:13;;;;;;;1.90;1.80;;;;;;;15.27;100.00;99707.94;4965179;28;20216;-77
2023/08/29 01:11:49;;;;;;;2.23;2.03;;;;;;;15.28;100.00;99708.78;4969141;28;20585;-76
2023/08/29 01:14:41;;;;;;;2.57;2.00;;;;;;;15.26;100.00;99705.38;4963392;28;20495;-79
2023/08/29 01:17:10;;;;;;;3.27;2.20;;;;;;;15.24;100.00;99706.28;4967143;28;20285;-75
2023/08/29 01:19:42;;;;;;;3.67;2.40;;;;;;;15.24;100.00;99706.28;4965771;28;20221;-76
2023/08/29 01:22:17;;;;;;;2.10;2.00;;;;;;;15.24;100.00;99700.22;4964557;28;20186;-78
2023/08/29 01:24:52;;;;;;;2.50;2.30;;;;;;;15.22;100.00;99712.47;4979707;28;20272;-76
2023/08/29 01:27:21;;;;;;;3.63;2.57;;;;;;;15.20;100.00;99706.47;4962814;28;20205;-79
2023/08/29 01:29:47;;;;;;;2.50;2.20;;;;;;;15.18;100.00;99705.66;4963545;28;20199;-77
2023/08/29 01:32:14;;;;;;;2.67;2.10;;;;;;;15.17;100.00;99706.56;4965839;28;20557;-79
2023/08/29 01:34:42;;;;;;;2.10;2.00;;;;;;;15.18;100.00;99700.44;4960242;28;20193;-78
2023/08/29 01:37:12;;;;;;;2.23;2.03;;;;;;;15.18;100.00;99695.25;4960058;28;20197;-76
2023/08/29 01:39:38;;;;;;;2.23;1.90;;;;;;;15.17;100.00;99707.44;4970051;28;20212;-76
2023/08/29 01:42:03;;;;;;;2.37;2.17;;;;;;;15.16;100.00;99704.88;4962365;28;20841;-76
2023/08/29 01:44:28;;;;;;;2.03;1.93;;;;;;;15.16;100.00;99699.66;4967494;28;20194;-77
2023/08/29 01:46:54;;;;;;;2.00;1.90;;;;;;;15.16;100.00;99705.72;4968571;28;20698;-76
2023/08/29 01:49:19;;;;;;;2.33;2.13;;;;;;;15.18;100.00;99700.44;4961734;28;20233;-78
2023/08/29 01:51:45;;;;;;;2.00;1.90;;;;;;;15.16;100.00;99695.31;4960419;28;20205;-77
2023/08/29 01:54:13;;;;;;;2.47;2.27;;;;;;;15.16;100.00;99703.13;4965841;28;20573;-78
2023/08/29 01:56:39;;;;;;;2.20;2.00;;;;;;;15.16;100.00;99702.25;4959386;28;20187;-77
2023/08/29 01:59:08;;;;;;;2.17;2.03;;;;;;;15.14;100.00;99702.34;4963668;28;20215;-77
2023/08/29 02:01:34;;;;;;;2.33;2.17;;;;;;;15.14;100.00;99701.47;4965518;28;20312;-79
2023/08/29 02:03:59;;;;;;;3.10;2.17;;;;;;;15.13;100.00;99702.38;4964049;28;20688;-77
2023/08/29 02:06:24;;;;;;;2.63;2.43;;;;;;;15.11;100.00;99694.63;4965220;28;20213;-79
2023/08/29 02:08:52;;;;;;;3.40;2.80;;;;;;;15.09;100.00;99696.44;4960270;28;20220;-78
2023/08/29 02:11:17;;;;;;;3.13;2.50;;;;;;;15.03;100.00;99686.25;4967883;28;20201;-77
2023/08/29 02:13:43;;;;;;;2.47;2.27;;;;;;;15.01;100.00;99685.47;4970754;28;20198;-76
2023/08/29 02:16:08;;;;;;;2.53;2.33;;;;;;;14.99;100.00;99693.31;4967632;28;20756;-79
2023/08/29 02:18:33;;;;;;;2.53;2.33;;;;;;;14.98;100.00;99690.78;4965142;28;20300;-75
2023/08/29 02:20:59;;;;;;;2.70;2.50;;;;;;;14.98;100.00;99691.59;4960743;28;20197;-77
2023/08/29 02:23:24;;;;;;;2.80;2.47;;;;;;;14.99;100.00;99692.47;4962293;28;20190;-78
2023/08/29 02:26:05;;;;;;;3.30;3.10;;;;;;;15.00;100.00;99691.56;4963821;28;20308;-77
2023/08/29 02:28:35;;;;;;;3.10;2.67;;;;;;;14.97;100.00;99684.72;4967345;28;20222;-76
2023/08/29 02:31:03;;;;;;;2.90;2.70;;;;;;;14.97;100.00;99683.84;4967555;28;20549;-78
2023/08/29 02:33:28;;;;;;;3.23;3.03;;;;;;;14.96;100.00;99680.41;4967165;28;20321;-76
2023/08/29 02:35:53;;;;;;;3.10;2.80;;;;;;;14.96;100.00;99679.56;4963918;28;20227;-76
2023/08/29 02:38:19;;;;;;;2.80;2.60;;;;;;;14.96;100.00;99680.41;4964824;28;20213;-78
2023/08/29 02:40:47;;;;;;;3.13;2.83;;;;;;;14.95;100.00;99676.13;4968191;28;20686;-78
2023/08/29 02:43:12;;;;;;;3.70;2.70;;;;;;;14.97;100.00;99670.84;4966901;28;21043;-77
2023/08/29 02:45:37;;;;;;;2.90;2.70;;;;;;;14.97;100.00;99678.66;4964041;28;20218;-77
2023/08/29 02:48:04;;;;;;;3.53;2.63;;;;;;;14.96;100.00;99675.22;4964096;28;20209;-78
2023/08/29 02:50:30;;;;;;;2.80;2.60;;;;;;;14.97;100.00;99670.84;4964172;28;20182;-78
2023/08/29 02:52:59;;;;;;;2.87;2.67;;;;;;;14.96;100.00;99677.81;4971266;28;21301;-78
2023/08/29 02:55:24;;;;;;;3.80;3.20;;;;;;;14.96;100.00;99671.75;4986713;28;20189;-78
2023/08/29 02:57:50;;;;;;;3.30;2.50;;;;;;;14.96;100.00;99669.13;4970366;28;20221;-77
2023/08/29 03:00:15;;;;;;;3.13;2.93;;;;;;;14.96;100.00;99672.59;4974190;28;20192;-78
2023/08/29 03:02:44;;;;;;;3.13;2.83;;;;;;;14.97;100.00;99676.03;4966219;28;20305;-78
2023/08/29 03:05:09;;;;;;;2.97;2.77;;;;;;;14.96;100.00;99675.22;4961829;28;20217;-77
2023/08/29 03:07:37;;;;;;;3.47;2.90;;;;;;;14.99;100.00;99671.63;4968071;28;20197;-77
2023/08/29 03:10:03;;;;;;;3.07;2.70;;;;;;;15.01;100.00;99675.03;4971730;28;20194;-76
2023/08/29 03:12:28;;;;;;;3.20;3.00;;;;;;;15.01;100.00;99677.63;4975755;28;20194;-76
2023/08/29 03:14:54;;;;;;;3.60;2.90;;;;;;;15.02;100.00;99671.53;4962885;28;20193;-77
2023/08/29 03:17:21;;;;;;;3.23;2.93;;;;;;;15.01;100.00;99662.00;4962198;28;20264;-78
2023/08/29 03:19:47;;;;;;;2.70;2.50;;;;;;;15.02;100.00;99668.91;4963591;28;20186;-77
2023/08/29 03:22:15;;;;;;;3.23;2.93;;;;;;;15.02;100.00;99669.75;4972083;28;20279;-77
2023/08/29 03:24:45;;;;;;;3.67;3.40;;;;;;;15.02;100.00;99661.09;4970115;28;20256;-76
2023/08/29 03:27:10;;;;;;;3.60;3.23;;;;;;;15.01;100.00;99667.22;4971217;28;20278;-77
2023/08/29 03:29:39;;;;;;;3.50;3.20;;;;;;;15.01;100.00;99664.59;4969947;28;20321;-77
2023/08/29 03:32:04;;;;;;;3.20;3.00;;;;;;;15.01;100.00;99662.84;4967461;28;21700;-77
2023/08/29 03:34:30;;;;;;;2.87;2.70;;;;;;;15.02;100.00;99661.94;4969095;28;20229;-77
2023/08/29 03:36:55;;;;;;;3.23;3.03;;;;;;;15.04;100.00;99659.28;4969896;28;20921;-77
2023/08/29 03:39:23;;;;;;;3.67;3.37;;;;;;;15.05;100.00;99664.44;4970741;28;20201;-78
2023/08/29 03:41:48;;;;;;;3.70;3.40;;;;;;;15.04;100.00;99651.47;4969867;28;20244;-76
2023/08/29 03:44:14;;;;;;;3.63;3.43;;;;;;;15.02;100.00;99655.88;4966430;28;20199;-79
2023/08/29 03:46:39;;;;;;;4.60;3.40;;;;;;;15.03;100.00;99655.81;4972199;28;20216;-77
2023/08/29 03:49:04;;;;;;;4.77;4.10;;;;;;;15.04;100.00;99654.06;4973123;28;20198;-77
2023/08/29 03:51:30;;;;;;;4.33;3.77;;;;;;;15.01;100.00;99657.63;4970523;28;20634;-77
2023/08/29 03:53:55;;;;;;;5.63;3.77;;;;;;;15.00;100.00;99650.72;4972101;28;20221;-76
2023/08/29 03:56:21;;;;;;;3.80;3.50;;;;;;;14.98;100.00;99651.69;4968428;28;20826;-76
2023/08/29 03:58:46;;;;;;;4.03;3.70;;;;;;;14.96;100.00;99661.31;4967927;28;20257;-77
2023/08/29 04:01:12;;;;;;;3.77;3.47;;;;;;;14.92;100.00;99657.97;4971449;28;20303;-79
2023/08/29 04:03:37;;;;;;;4.60;3.73;;;;;;;14.92;100.00;99655.38;4969987;28;20671;-77
2023/08/29 04:06:03;;;;;;;3.87;3.57;;;;;;;14.91;100.00;99656.28;4970098;28;20212;-76
2023/08/29 04:08:28;;;;;;;3.77;3.57;;;;;;;14.88;100.00;99659.84;4970398;28;20232;-77
2023/08/29 04:10:54;;;;;;;3.73;3.43;;;;;;;14.86;100.00;99659.06;4972818;28;20190;-79
2023/08/29 04:13:19;;;;;;;4.73;4.33;;;;;;;14.83;100.00;99659.16;4966047;28;20188;-78
2023/08/29 04:15:44;;;;;;;3.97;3.57;;;;;;;14.81;100.00;99660.16;4969509;28;20193;-78
2023/08/29 04:18:10;;;;;;;3.60;3.40;;;;;;;14.76;100.00;99653.34;4969222;28;20209;-78
2023/08/29 04:20:38;;;;;;;3.37;3.13;;;;;;;14.74;100.00;99654.31;4968734;28;20193;-77
2023/08/29 04:23:04;;;;;;;3.40;3.10;;;;;;;14.72;100.00;99654.34;4966334;28;20192;-77
2023/08/29 04:25:30;;;;;;;3.40;3.10;;;;;;;14.70;100.00;99656.16;4967941;28;20217;-79
2023/08/29 04:27:55;;;;;;;3.47;3.23;;;;;;;14.70;100.00;99652.72;4965178;28;20300;-76
2023/08/29 04:30:24;;;;;;;3.20;3.00;;;;;;;14.68;100.00;99660.56;4966221;28;20300;-77
2023/08/29 04:32:52;;;;;;;3.60;3.30;;;;;;;14.68;100.00;99659.72;4965483;28;20213;-77
2023/08/29 04:35:18;;;;;;;3.40;3.20;;;;;;;14.67;100.00;99655.38;4966810;28;20224;-77
2023/08/29 04:37:48;;;;;;;3.33;3.03;;;;;;;14.64;100.00;99651.16;4967705;28;20516;-78
2023/08/29 04:40:18;;;;;;;3.50;3.30;;;;;;;14.62;100.00;99653.78;4967862;28;20197;-79
2023/08/29 04:42:46;;;;;;;3.77;3.57;;;;;;;14.61;100.00;99646.03;4984361;28;20194;-77
2023/08/29 04:45:12;;;;;;;3.70;3.20;;;;;;;14.58;100.00;99652.22;4968924;28;20248;-76
2023/08/29 04:47:38;;;;;;;4.07;3.77;;;;;;;14.57;100.00;99647.06;4980659;28;20210;-78
2023/08/29 04:50:04;;;;;;;4.20;3.90;;;;;;;14.53;100.00;99646.31;4977588;28;20186;-79
2023/08/29 04:52:29;;;;;;;5.13;3.80;;;;;;;14.53;100.00;99651.53;4985831;28;20288;-77
2023/08/29 04:54:55;;;;;;;5.03;3.90;;;;;;;14.52;100.00;99655.03;4981393;28;20271;-77
2023/08/29 04:57:20;;;;;;;4.23;3.93;;;;;;;14.50;100.00;99659.44;4964103;28;20194;-78
2023/08/29 04:59:46;;;;;;;4.37;3.87;;;;;;;14.48;100.00;99659.50;4968841;28;20203;-77
2023/08/29 05:02:12;;;;;;;4.53;4.23;;;;;;;14.49;100.00;99657.75;4969179;28;20210;-77
2023/08/29 05:04:37;;;;;;;3.70;3.40;;;;;;;14.47;100.00;99650.00;4968694;28;20206;-80
2023/08/29 05:07:03;;;;;;;4.10;3.80;;;;;;;14.48;100.00;99645.63;4979149;28;20222;-79
2023/08/29 05:09:28;;;;;;;4.33;3.93;;;;;;;14.48;100.00;99656.91;4980081;28;20268;-79
2023/08/29 05:11:54;;;;;;;4.13;3.83;;;;;;;14.49;100.00;99655.13;4981154;28;20193;-81
2023/08/29 05:14:19;;;;;;;4.07;3.80;;;;;;;14.51;100.00;99662.91;4975310;28;20598;-79
2023/08/29 05:16:44;;;;;;;3.70;3.50;;;;;;;14.53;100.00;99658.47;4987831;28;20193;-80
2023/08/29 05:19:10;;;;;;;4.33;4.03;;;;;;;14.53;100.00;99656.75;4965177;28;20217;-79
2023/08/29 05:21:35;;;;;;;4.10;3.80;;;;;;;14.56;100.00;99656.63;4973971;28;20181;-79
2023/08/29 05:24:01;;;;;;;3.80;3.50;;;;;;;14.59;100.00;99650.47;4970274;28;20188;-79
2023/08/29 05:26:27;;;;;;;4.13;3.80;;;;;;;14.61;100.00;99656.47;4969470;28;20271;-79
2023/08/29 05:28:52;;;;;;;4.00;3.70;;;;;;;14.64;100.00;99653.75;4973486;28;20202;-78
2023/08/29 05:31:17;;;;;;;3.30;3.10;;;;;;;14.66;100.00;99651.09;4974277;28;20209;-79
2023/08/29 05:33:43;;;;;;;3.23;2.93;;;;;;;14.70;100.00;99650.09;4962984;28;20250;-80
2023/08/29 05:36:08;;;;;;;3.77;3.47;;;;;;;14.72;100.00;99650.91;4969237;28;20197;-78
2023/08/29 05:38:33;;;;;;;3.87;3.57;;;;;;;14.74;100.00;99655.16;4968890;28;20244;-79
2023/08/29 05:40:59;;;;;;;3.50;3.20;;;;;;;14.77;100.00;99648.97;4974261;28;20840;-81
2023/08/29 05:43:24;;;;;;;3.63;3.33;;;;;;;14.80;100.00;99661.88;4970771;28;20741;-80
2023/08/29 05:45:52;;;;;;;3.53;3.23;;;;;;;14.84;100.00;99660.00;4969704;28;20214;-80
2023/08/29 05:48:17;;;;;;;3.93;3.63;;;;;;;14.86;100.00;99664.28;4969418;28;20215;-79
2023/08/29 05:50:43;;;;;;;3.30;3.10;;;;;;;14.89;100.00;99664.16;4967081;28;20197;-79
2023/08/29 05:53:08;;;;;;;3.50;3.20;;;;;;;14.93;100.00;99664.91;4967806;28;20266;-78
2023/08/29 05:55:33;;;;;;;3.67;3.37;;;;;;;14.97;100.00;99663.03;4967412;28;20182;-78
2023/08/29 05:57:59;;;;;;;3.70;3.40;;;;;;;14.99;100.00;99667.25;4975963;28;20213;-80
2023/08/29 06:00:25;;;;;;;4.00;3.70;;;;;;;15.02;100.00;99668.91;4971403;28;20190;-79
2023/08/29 06:02:52;;;;;;;4.67;4.13;;;;;;;15.04;100.00;99665.34;4967680;28;20250;-78
2023/08/29 06:05:17;;;;;;;4.43;4.13;;;;;;;15.05;100.00;99676.63;4970387;28;20198;-78
2023/08/29 06:07:43;;;;;;;4.43;4.03;;;;;;;15.07;100.00;99677.38;4969851;28;20209;-80
2023/08/29 06:10:09;;;;;;;8.23;5.53;;;;;;;15.09;100.00;99678.19;4969447;28;20206;-82
2023/08/29 06:12:34;;;;;;;5.83;4.93;;;;;;;15.09;100.00;99671.25;4968258;28;20229;-80
2023/08/29 06:14:59;;;;;;;6.00;5.50;;;;;;;15.13;100.00;99678.91;4962643;28;20908;-80
2023/08/29 06:17:25;;;;;;;4.93;4.63;;;;;;;15.12;100.00;99678.06;4970397;28;20248;-79
2023/08/29 06:19:50;;;;;;;6.57;6.03;;;;;;;15.14;100.00;99678.00;4981898;28;20650;-80
2023/08/29 06:22:15;;;;;;;5.73;5.23;;;;;;;15.17;100.00;99685.72;4958168;28;20183;-80
2023/08/29 06:24:40;;;;;;;6.97;6.47;;;;;;;15.15;100.00;99677.97;4963840;28;20204;-80
2023/08/29 06:27:06;;;;;;;7.63;6.93;;;;;;;15.16;100.00;99669.25;4960126;28;20179;-79
2023/08/29 06:29:31;;;;;;;6.17;5.70;;;;;;;15.16;100.00;99679.66;4969101;28;20297;-80
2023/08/29 06:31:57;;;;;;;6.80;6.30;;;;;;;15.22;100.00;99686.41;4966339;28;20280;-79
2023/08/29 06:34:23;;;;;;;8.90;7.10;;;;;;;15.27;100.00;99687.09;4964164;28;20200;-79
2023/08/29 06:36:48;;;;;;;8.07;7.50;;;;;;;15.29;100.00;99693.06;4969337;28;20370;-81
2023/08/29 06:39:14;;;;;;;8.47;7.83;;;;;;;15.33;100.00;99693.81;4977539;28;20585;-80
2023/08/29 06:41:39;;;;;;;6.60;6.10;;;;;;;15.37;100.00;99687.56;4963405;28;20195;-81
2023/08/29 06:44:05;;;;;;;8.07;7.57;;;;;;;15.44;100.00;99694.25;4987413;28;20587;-81
2023/08/29 06:46:31;;;;;;;9.60;8.90;;;;;;;15.51;100.00;99700.91;4971484;28;20271;-83
2023/08/29 06:48:56;;;;;;;7.53;6.90;;;;;;;15.55;100.00;99697.28;4981596;28;20302;-82
2023/08/29 06:51:21;;;;;;;6.40;6.00;;;;;;;15.64;100.00;99690.84;4974206;28;20181;-79
2023/08/29 06:53:46;;;;;;;8.87;8.07;;;;;;;15.73;100.00;99699.25;4974185;28;20268;-79
2023/08/29 06:56:14;;;;;;;7.97;7.27;;;;;;;15.77;100.00;99688.63;4970948;28;20256;-81
2023/08/29 06:58:40;;;;;;;8.67;7.97;;;;;;;15.82;100.00;99694.47;4970075;28;20831;-80
2023/08/29 07:01:08;;;;;;;8.10;7.50;;;;;;;15.90;100.00;99690.75;4977606;28;20181;-80
2023/08/29 07:03:33;;;;;;;7.40;6.80;;;;;;;15.95;100.00;99692.28;4963573;28;20186;-80
2023/08/29 07:05:59;;;;;;;7.33;6.80;;;;;;;16.01;100.00;99704.22;4966257;28;20245;-80
2023/08/29 07:08:24;;;;;;;6.57;6.07;;;;;;;16.11;100.00;99702.06;4972792;28;20252;-81
2023/08/29 07:10:50;;;;;;;6.57;5.97;;;;;;;16.23;100.00;99704.16;4962737;28;20269;-80
2023/08/29 07:13:18;;;;;;;6.60;6.10;;;;;;;16.35;100.00;99704.56;4961885;28;20301;-82
2023/08/29 07:15:43;;;;;;;6.37;5.97;;;;;;;16.45;100.00;99704.13;4961575;28;20184;-82
2023/08/29 07:18:09;;;;;;;6.10;5.70;;;;;;;16.61;100.00;99706.06;4966395;28;20314;-81
2023/08/29 07:20:34;;;;;;;5.57;5.17;;;;;;;16.76;100.00;99709.78;4967525;28;20275;-81
2023/08/29 07:22:59;;;;;;;6.70;6.20;;;;;;;16.79;100.00;99717.47;4985803;28;20200;-82
2023/08/29 07:25:39;;;;;;;5.97;5.47;;;;;;;16.88;100.00;99713.59;4970993;28;20208;-81
2023/08/29 07:28:09;;;;;;;6.20;5.73;;;;;;;16.96;100.00;99718.53;4967675;28;20217;-80
2023/08/29 07:30:35;;;;;;;5.93;5.43;;;;;;;16.98;100.00;99708.84;4965666;28;20192;-80
2023/08/29 07:33:00;;;;;;;5.53;5.07;;;;;;;17.05;100.00;99711.13;4970207;28;20201;-81
2023/08/29 07:35:25;;;;;;;6.43;5.90;;;;;;;17.08;100.00;99710.16;4975191;28;20173;-81
2023/08/29 07:37:51;;;;;;;5.60;5.20;;;;;;;17.12;100.00;99718.69;4962801;28;20576;-81
2023/08/29 07:40:17;;;;;;;5.40;5.00;;;;;;;17.21;100.00;99718.25;4974306;28;20193;-82
2023/08/29 07:42:42;;;;;;;4.87;4.40;;;;;;;17.26;100.00;99724.16;4968161;28;20189;-82
2023/08/29 07:45:08;;;;;;;4.87;4.47;;;;;;;17.35;100.00;99730.72;4971131;28;20202;-81
2023/08/29 07:47:33;;;;;;;5.80;5.30;;;;;;;17.35;100.00;99733.34;4971289;28;20191;-81
2023/08/29 07:49:59;;;;;;;5.57;5.13;;;;;;;17.36;100.00;99735.03;4970834;28;20255;-82
2023/08/29 07:52:24;;;;;;;4.90;4.40;;;;;;;17.47;100.00;99734.53;4974040;28;20193;-82
2023/08/29 07:54:49;;;;;;;4.87;4.57;;;;;;;17.59;100.00;99740.94;4961548;28;20216;-81
2023/08/29 07:57:15;;;;;;;7.03;6.43;;;;;;;17.56;100.00;99736.72;4967741;28;20191;-81
2023/08/29 07:59:43;;;;;;;6.40;5.90;;;;;;;17.57;100.00;99732.31;4975914;28;20236;-81
2023/08/29 08:02:08;;;;;;;6.13;5.53;;;;;;;17.63;100.00;99735.50;4968702;28;20596;-82
2023/08/29 08:04:33;;;;;;;7.57;6.83;;;;;;;17.61;100.00;99729.50;4974317;28;20200;-81
2023/08/29 08:06:59;;;;;;;6.70;5.90;;;;;;;17.67;100.00;99734.44;4964348;28;20202;-82
2023/08/29 08:09:24;;;;;;;6.37;5.87;;;;;;;17.74;100.00;99737.59;4972853;28;20239;-81
2023/08/29 08:11:49;;;;;;;5.37;4.87;;;;;;;17.81;100.00;99740.78;4973418;28;20199;-81
2023/08/29 08:14:17;;;;;;;5.90;5.40;;;;;;;17.88;100.00;99736.09;4967020;28;20198;-81
2023/08/29 08:16:42;;;;;;;6.53;5.97;;;;;;;17.83;100.00;99737.19;4985399;28;20308;-81
2023/08/29 08:19:10;;;;;;;6.87;6.27;;;;;;;17.86;100.00;99738.81;4973552;28;20212;-80
2023/08/29 08:21:35;;;;;;;6.50;6.00;;;;;;;17.87;100.00;99737.88;4974064;28;20174;-81
2023/08/29 08:24:00;;;;;;;7.40;6.73;;;;;;;17.90;100.00;99736.88;4972894;28;20196;-81
2023/08/29 08:26:27;;;;;;;7.00;6.50;;;;;;;17.76;100.00;99745.41;4965233;28;20212;-81
2023/08/29 08:28:53;;;;;;;7.03;6.43;;;;;;;17.72;100.00;99746.47;4970003;28;20202;-81
2023/08/29 08:31:19;;;;;;;7.03;6.43;;;;;;;17.66;100.00;99748.44;4982379;28;20189;-82
2023/08/29 08:33:44;;;;;;;7.17;6.27;;;;;;;17.66;100.00;99743.19;4987111;28;20300;-81
2023/08/29 08:36:10;;;;;;;5.97;5.47;;;;;;;17.74;100.00;99745.47;4967595;28;20213;-81
2023/08/29 08:38:35;;;;;;;5.93;5.43;;;;;;;17.81;100.00;99751.25;4963387;28;20273;-82
2023/08/29 08:41:03;;;;;;;5.13;4.73;;;;;;;17.90;100.00;99756.06;4964770;28;20201;-82
2023/08/29 08:43:29;;;;;;;6.70;6.20;;;;;;;17.97;100.00;99757.47;4967911;28;20190;-81
2023/08/29 08:45:56;;;;;;;5.03;4.63;;;;;;;18.10;100.00;99756.88;4971326;28;20288;-82
2023/08/29 08:48:21;;;;;;;6.70;6.10;;;;;;;18.21;100.00;99756.34;4970777;28;20218;-83
2023/08/29 08:50:58;;;;;;;5.50;5.00;;;;;;;18.31;100.00;99748.91;4979019;28;20282;-82
2023/08/29 08:53:25;;;;;;;6.40;5.90;;;;;;;18.33;100.00;99760.97;4973398;28;20282;-81
2023/08/29 08:55:50;;;;;;;7.07;6.57;;;;;;;18.33;100.00;99762.75;4984081;28;20221;-81
2023/08/29 08:58:17;;;;;;;7.63;6.93;;;;;;;18.23;100.00;99768.44;4978938;28;20237;-81
2023/08/29 09:00:43;;;;;;;6.50;5.90;;;;;;;18.18;100.00;99762.59;4968947;28;20285;-81
2023/08/29 09:03:08;;;;;;;9.73;7.33;;;;;;;18.16;100.00;99760.97;4968551;28;20306;-80
2023/08/29 09:05:34;;;;;;;6.30;5.80;;;;;;;18.23;100.00;99763.19;4965449;28;20217;-82
2023/08/29 09:07:59;;;;;;;5.70;5.30;;;;;;;18.35;100.00;99766.16;4983417;28;20213;-80
2023/08/29 09:10:24;;;;;;;5.43;4.97;;;;;;;18.48;100.00;99758.50;4968851;28;20197;-80
2023/08/29 09:12:51;;;;;;;5.50;5.10;;;;;;;18.58;100.00;99757.97;4966283;28;20189;-79
2023/08/29 09:15:18;;;;;;;5.73;5.33;;;;;;;18.65;100.00;99758.50;4972029;28;20249;-81
2023/08/29 09:17:45;;;;;;;5.90;5.50;;;;;;;18.74;100.00;99758.06;4972149;28;20279;-82
2023/08/29 09:20:11;;;;;;;4.93;4.63;;;;;;;18.93;100.00;99759.69;4977512;28;21004;-82
2023/08/29 09:22:36;;;;;;;4.50;4.20;;;;;;;19.05;100.00;99753.00;4962938;28;20177;-81
2023/08/29 09:25:05;;;;;;;5.30;4.77;;;;;;;19.21;100.00;99760.88;4965994;28;20217;-81
2023/08/29 09:27:39;;;;;;;6.50;5.93;;;;;;;19.18;100.00;99758.47;4968872;28;20632;-82
2023/08/29 09:30:12;;;;;;;6.27;5.77;;;;;;;19.21;100.00;99758.25;4961850;28;20191;-81
2023/08/29 09:32:45;;;;;;;6.47;5.97;;;;;;;19.12;100.00;99756.16;4971510;28;20272;-81
2023/08/29 09:35:15;;;;;;;6.27;5.70;;;;;;;19.21;100.00;99760.06;4964200;28;20177;-80
2023/08/29 09:37:44;;;;;;;5.90;5.40;;;;;;;19.31;100.00;99762.13;4970854;28;20247;-80
2023/08/29 09:40:12;;;;;;;6.13;5.53;;;;;;;19.43;100.00;99751.88;4974396;28;20185;-80
2023/08/29 09:42:37;;;;;;;6.57;5.97;;;;;;;19.46;100.00;99760.41;4960945;28;20174;-80
2023/08/29 09:45:07;;;;;;;6.60;6.10;;;;;;;19.52;100.00;99761.03;4962516;28;20664;-80
2023/08/29 09:47:32;;;;;;;5.13;4.73;;;;;;;19.72;100.00;99760.78;4966355;28;20181;-81
2023/08/29 09:49:57;;;;;;;5.87;5.37;;;;;;;19.88;100.00;99759.97;4972106;28;20182;-81
2023/08/29 09:52:24;;;;;;;5.13;4.77;;;;;;;20.08;100.00;99762.28;4969852;28;20655;-81
2023/08/29 09:54:51;;;;;;;4.43;4.03;;;;;;;20.39;100.00;99759.69;4967343;28;20240;-80
2023/08/29 09:57:19;;;;;;;5.23;4.43;;;;;;;20.73;100.00;99757.66;4960556;28;20189;-82
2023/08/29 09:59:46;;;;;;;4.40;4.00;;;;;;;20.86;100.00;99752.53;4977073;28;20201;-82
2023/08/29 10:02:13;;;;;;;5.03;4.63;;;;;;;20.91;100.00;99758.38;4969633;28;20347;-81
2023/08/29 10:04:55;;;;;;;4.27;3.83;;;;;;;21.12;99.69;99745.69;4977772;28;20194;-80
2023/08/29 10:07:25;;;;;;;4.00;3.60;;;;;;;21.29;97.12;99746.44;4972441;28;20267;-80
2023/08/29 10:09:51;;;;;;;3.47;3.20;;;;;;;21.37;96.57;99749.41;4968616;28;20209;-82
2023/08/29 10:12:18;;;;;;;4.40;4.10;;;;;;;21.31;95.70;99748.03;4972117;28;20183;-81
2023/08/29 10:14:44;;;;;;;6.00;5.60;;;;;;;21.10;94.87;99744.09;4969921;28;20418;-82
2023/08/29 10:17:10;;;;;;;4.77;3.63;;;;;;;21.28;94.82;99745.56;4969241;28;21188;-82
2023/08/29 10:19:37;;;;;;;4.10;3.70;;;;;;;21.45;94.43;99744.53;4969003;28;20203;-82
2023/08/29 10:22:07;;;;;;;2.77;2.57;;;;;;;21.59;94.06;99741.00;4970720;28;20354;-81
2023/08/29 10:24:35;;;;;;;3.43;2.90;;;;;;;21.69;93.25;99730.75;4961113;28;20594;-83
2023/08/29 10:27:02;;;;;;;3.33;3.00;;;;;;;21.82;92.04;99737.88;4966096;28;20220;-83
2023/08/29 10:29:28;;;;;;;3.13;2.93;;;;;;;21.90;91.23;99741.69;4971114;28;20578;-82
2023/08/29 10:31:54;;;;;;;3.97;3.57;;;;;;;22.03;90.75;99741.75;4968983;28;20182;-81
2023/08/29 10:34:20;;;;;;;2.60;2.40;;;;;;;22.18;88.44;99744.31;4970167;28;20190;-81
2023/08/29 10:36:46;;;;;;;3.60;3.30;;;;;;;22.35;85.68;99740.53;4968445;28;20539;-82
2023/08/29 10:39:15;;;;;;;4.43;3.17;;;;;;;22.39;87.63;99737.59;4968116;28;20202;-81
2023/08/29 10:41:45;;;;;;;4.87;4.43;;;;;;;22.04;83.25;99739.94;4969473;28;20194;-82
2023/08/29 10:44:36;;;;;;;3.63;2.80;;;;;;;21.75;85.38;99732.16;4964850;28;20217;-82
2023/08/29 10:47:31;;;;;;;4.83;4.00;;;;;;;21.87;84.92;99738.41;4975237;28;20205;-82
2023/08/29 10:50:02;;;;;;;3.20;2.40;;;;;;;22.16;85.52;99739.13;4976704;28;20684;-83
2023/08/29 10:52:46;;;;;;;2.83;2.50;;;;;;;22.39;85.62;99736.75;4968538;28;20242;-83
2023/08/29 10:55:23;;;;;;;4.90;3.67;;;;;;;22.43;85.24;99730.38;4968971;28;20182;-82
2023/08/29 10:57:51;;;;;;;3.07;2.67;;;;;;;22.68;85.35;99724.28;4969312;28;20205;-82
2023/08/29 11:00:34;;;;;;;2.60;2.40;;;;;;;22.96;81.91;99716.22;4969412;28;20574;-83
2023/08/29 11:03:00;;;;;;;3.63;3.43;;;;;;;22.96;82.61;99719.72;4966609;28;20193;-79
2023/08/29 11:05:25;;;;;;;7.03;3.63;;;;;;;23.31;81.24;99720.84;4967665;28;20250;-80
2023/08/29 11:07:50;;;;;;;3.57;2.67;;;;;;;23.39;81.11;99721.13;4965641;28;20240;-79
2023/08/29 11:10:23;;;;;;;2.83;2.60;;;;;;;23.53;80.93;99717.50;4964924;28;20181;-79
2023/08/29 11:13:08;;;;;;;2.50;2.30;;;;;;;23.66;81.75;99706.88;4961580;28;20670;-81
2023/08/29 11:15:48;;;;;;;3.20;2.77;;;;;;;23.73;80.99;99704.63;4967066;28;20276;-80
2023/08/29 11:18:26;;;;;;;2.87;2.50;;;;;;;23.63;82.34;99707.09;4964740;28;20202;-81
2023/08/29 11:20:53;;;;;;;2.90;2.70;;;;;;;23.58;81.32;99706.59;4966175;28;20216;-82
2023/08/29 11:23:20;;;;;;;2.20;2.00;;;;;;;23.66;81.10;99706.03;4973132;28;20200;-81
2023/08/29 11:25:50;;;;;;;2.43;2.23;;;;;;;23.73;81.03;99702.81;4980995;28;20202;-82